Grimsley, Tennessee
Current Conditions -  °F | °C
As of 8:53 AM on Saturday 25 Oct 2014 (Local Time) from KCSV Reporting Station
Clear Clear  
Wind Chill: 54°   Ceiling: Unl
Heat Index: 54°   Visibility: 10mi
Dew Point: 46°   Wind: 0mph
Humidity: 75%   Direction: NA
Pressure: 30.13"   Gusts: NA
Location:  36.27°N, 84.98°W
Report Text: KCSV 251353Z AUTO 00000KT 10SM CLR 12/08 A3013 RMK AO2 SLP198 T01220078
Loading
Personal Weather Stations






























Interactive Weather Map New forecast layout! Learn more

10-Day Weather Forecast

Advertisements
Track Severe Weather on mobile